Time;durP1;ratioP1;P1;durP2;ratioP2;P2;SDS_P1;SDS_P2;PMS_P1;PMS_P2;Temp;Humidity;BMP_temperature;BMP_pressure;BME280_temperature;BME280_humidity;BME280_pressure;Samples;Min_cycle;Max_cycle;Signal;HPM_P1;HPM_P2
2022/11/24 09:21:35;;;;;;;46.08;31.45;;;8.00;99.90;;;;;;5057137;28;20435;-62
2022/11/24 09:24:01;;;;;;;36.03;27.48;;;8.10;99.90;;;;;;5038213;28;20024;-65
2022/11/24 09:26:30;;;;;;;30.10;23.60;;;8.30;99.90;;;;;;5040570;28;20033;-64
2022/11/24 09:28:57;;;;;;;32.38;24.75;;;9.00;99.90;;;;;;5040051;28;20025;-66
2022/11/24 09:31:26;;;;;;;39.60;30.77;;;9.80;99.90;;;;;;5039270;28;20026;-64
2022/11/24 09:33:53;;;;;;;35.88;28.15;;;10.50;99.90;;;;;;5028284;28;20069;-65
2022/11/24 09:36:19;;;;;;;30.08;23.17;;;10.80;99.90;;;;;;5033893;28;20483;-63
2022/11/24 09:38:45;;;;;;;29.73;24.25;;;11.20;99.90;;;;;;5037757;28;20445;-66
2022/11/24 09:41:16;;;;;;;30.58;24.60;;;11.60;98.80;;;;;;5037633;28;20037;-65
2022/11/24 09:44:00;;;;;;;30.35;23.85;;;12.00;97.20;;;;;;5040574;28;20022;-63
2022/11/24 09:46:31;;;;;;;27.30;21.25;;;12.40;92.40;;;;;;5041837;28;20743;-64
2022/11/24 09:48:57;;;;;;;26.92;20.05;;;12.70;93.50;;;;;;5038696;28;20053;-67
2022/11/24 09:51:28;;;;;;;25.45;21.70;;;13.10;90.00;;;;;;5043527;28;20094;-65
2022/11/24 09:54:05;;;;;;;22.52;19.15;;;13.40;84.30;;;;;;5042828;28;20057;-67
2022/11/24 09:56:33;;;;;;;20.25;17.67;;;13.60;82.60;;;;;;5038254;28;20036;-66
2022/11/24 09:59:05;;;;;;;21.23;18.00;;;13.80;80.00;;;;;;5040548;28;20022;-68
2022/11/24 10:01:40;;;;;;;17.58;13.38;;;14.00;78.50;;;;;;5066916;28;20051;-70
2022/11/24 10:04:38;;;;;;;16.70;14.38;;;14.00;74.10;;;;;;5024259;28;20021;-63
2022/11/24 10:07:13;;;;;;;25.70;20.48;;;14.20;76.30;;;;;;5023740;28;20087;-67
2022/11/24 10:09:59;;;;;;;16.42;14.07;;;14.60;75.00;;;;;;5025989;28;20030;-64
2022/11/24 10:12:43;;;;;;;12.27;10.98;;;15.00;72.00;;;;;;5025755;28;20088;-63
2022/11/24 10:15:21;;;;;;;10.50;8.40;;;14.90;68.90;;;;;;5026184;28;20026;-70
2022/11/24 10:18:28;;;;;;;11.20;9.40;;;15.10;67.40;;;;;;5023823;28;20029;-66
2022/11/24 10:20:57;;;;;;;12.25;10.15;;;15.20;66.90;;;;;;5022804;28;20045;-70
2022/11/24 10:24:22;;;;;;;10.52;7.70;;;15.40;65.20;;;;;;5026946;28;20456;-65
2022/11/24 10:27:00;;;;;;;18.30;14.48;;;15.60;64.80;;;;;;5017502;28;20087;-65
2022/11/24 10:29:39;;;;;;;18.73;15.18;;;16.10;63.90;;;;;;5023678;28;20025;-70
2022/11/24 10:32:35;;;;;;;21.27;16.75;;;16.20;62.70;;;;;;5012043;28;20137;-65
2022/11/24 10:35:26;;;;;;;19.27;14.52;;;15.70;63.00;;;;;;4999981;28;20125;-65
2022/11/24 10:38:05;;;;;;;11.75;9.70;;;15.70;63.80;;;;;;5031908;28;20018;-67
2022/11/24 10:40:44;;;;;;;12.07;9.45;;;15.80;62.60;;;;;;5009159;28;20057;-62
2022/11/24 10:43:11;;;;;;;12.18;9.70;;;15.90;59.60;;;;;;5008725;28;20037;-64
2022/11/24 10:46:09;;;;;;;15.82;12.18;;;15.80;61.50;;;;;;5008583;28;20633;-70
2022/11/24 10:48:51;;;;;;;11.00;8.52;;;15.70;61.90;;;;;;5007386;28;20030;-65
2022/11/24 10:51:46;;;;;;;11.25;8.00;;;15.90;59.80;;;;;;5009897;28;20025;-64
2022/11/24 10:54:15;;;;;;;9.68;7.50;;;15.90;59.70;;;;;;5005961;28;20030;-69
2022/11/24 10:56:42;;;;;;;11.27;9.45;;;16.00;59.80;;;;;;5010877;28;20025;-69
2022/11/24 10:59:20;;;;;;;11.70;9.48;;;16.20;59.00;;;;;;5010306;28;20030;-64
2022/11/24 11:01:46;;;;;;;15.63;13.05;;;16.40;58.50;;;;;;5011534;28;20110;-68
2022/11/24 11:04:19;;;;;;;13.68;10.30;;;16.00;57.70;;;;;;5008426;28;20113;-67
2022/11/24 11:06:45;;;;;;;10.52;8.05;;;16.20;57.50;;;;;;5011619;28;20110;-70
2022/11/24 11:09:18;;;;;;;5.47;4.90;;;16.40;56.70;;;;;;5012401;28;20108;-69
2022/11/24 11:11:47;;;;;;;2.40;2.05;;;16.50;55.30;;;;;;5011034;28;20034;-68
2022/11/24 11:14:27;;;;;;;2.97;1.60;;;16.60;54.20;;;;;;5010395;28;20064;-64
2022/11/24 11:16:56;;;;;;;2.42;1.60;;;16.50;54.10;;;;;;5011413;28;20030;-69
2022/11/24 11:19:38;;;;;;;1.95;1.60;;;16.50;54.20;;;;;;5010448;28;20353;-67
2022/11/24 11:22:27;;;;;;;2.08;1.45;;;16.50;54.30;;;;;;5011608;28;20041;-69
2022/11/24 11:25:12;;;;;;;1.58;1.48;;;16.40;51.90;;;;;;5012853;28;20018;-71
2022/11/24 11:27:40;;;;;;;2.00;1.80;;;16.10;53.30;;;;;;5012752;28;20679;-65
2022/11/24 11:30:27;;;;;;;2.00;1.70;;;15.90;53.00;;;;;;5011962;28;20025;-64
2022/11/24 11:32:58;;;;;;;2.20;1.92;;;15.80;53.50;;;;;;4993123;28;20101;-71
2022/11/24 11:35:30;;;;;;;2.35;1.85;;;15.90;53.70;;;;;;4991787;28;20073;-69
2022/11/24 11:38:00;;;;;;;3.13;2.10;;;15.80;53.20;;;;;;4991960;28;20435;-68
2022/11/24 11:40:29;;;;;;;2.67;2.00;;;15.80;53.40;;;;;;4992424;28;20034;-71
2022/11/24 11:43:03;;;;;;;2.78;2.45;;;15.50;54.50;;;;;;4990615;28;20081;-65
2022/11/24 11:45:34;;;;;;;6.43;3.70;;;15.30;54.60;;;;;;4992508;28;20031;-64
2022/11/24 11:48:00;;;;;;;3.88;2.85;;;15.50;55.60;;;;;;4992587;28;20678;-66
2022/11/24 11:50:33;;;;;;;4.28;3.63;;;15.40;54.90;;;;;;4991870;28;20064;-67
2022/11/24 11:53:17;;;;;;;5.28;4.78;;;15.50;55.50;;;;;;4993762;28;20022;-68
2022/11/24 11:55:48;;;;;;;3.80;3.50;;;15.40;55.20;;;;;;4993926;28;20129;-65
2022/11/24 11:58:33;;;;;;;3.40;3.10;;;15.50;54.70;;;;;;4993365;28;20031;-68
2022/11/24 12:01:28;;;;;;;3.75;3.35;;;15.60;55.30;;;;;;4993873;28;20034;-69
2022/11/24 12:04:28;;;;;;;3.10;2.35;;;15.70;54.70;;;;;;4994523;28;20034;-68
2022/11/24 12:07:18;;;;;;;2.78;2.58;;;15.80;54.50;;;;;;4994496;28;20424;-65
2022/11/24 12:10:05;;;;;;;3.55;2.50;;;15.50;55.90;;;;;;4995020;28;20580;-70
2022/11/24 12:12:56;;;;;;;2.72;2.38;;;15.20;55.70;;;;;;4994692;28;20059;-65
2022/11/24 12:15:37;;;;;;;2.15;1.50;;;15.00;55.50;;;;;;4994689;28;20026;-65
2022/11/24 12:18:26;;;;;;;1.45;1.25;;;14.90;55.60;;;;;;4995018;28;20413;-64
2022/11/24 12:21:07;;;;;;;2.20;1.23;;;15.00;57.20;;;;;;4994503;28;20098;-68
2022/11/24 12:24:10;;;;;;;2.00;1.80;;;15.00;56.00;;;;;;4993928;28;20026;-67
2022/11/24 12:26:59;;;;;;;2.83;1.80;;;15.00;57.60;;;;;;4993844;28;20038;-69
2022/11/24 12:29:44;;;;;;;3.20;2.15;;;14.90;56.80;;;;;;4994452;28;20026;-67
2022/11/24 12:32:28;;;;;;;3.20;2.22;;;14.90;57.00;;;;;;4994572;28;20029;-66
2022/11/24 12:35:21;;;;;;;2.17;1.90;;;15.00;55.60;;;;;;4994277;28;20114;-62
2022/11/24 12:37:58;;;;;;;2.33;2.10;;;15.00;55.20;;;;;;4994392;28;20031;-68
2022/11/24 12:41:08;;;;;;;3.28;3.00;;;14.80;55.50;;;;;;4993053;28;20105;-70
2022/11/24 12:43:39;;;;;;;3.05;2.53;;;14.60;54.80;;;;;;5003218;28;20420;-71
2022/11/24 12:46:29;;;;;;;2.58;2.38;;;14.30;56.80;;;;;;5013887;28;20079;-69
2022/11/24 12:49:21;;;;;;;4.70;3.58;;;14.30;56.60;;;;;;5013884;28;20433;-68
2022/11/24 12:51:58;;;;;;;6.22;4.93;;;14.30;58.10;;;;;;5012966;28;20034;-66
2022/11/24 12:54:28;;;;;;;3.45;2.70;;;14.20;57.90;;;;;;5012085;28;20424;-67
2022/11/24 12:57:03;;;;;;;3.15;2.00;;;14.10;57.30;;;;;;5013536;28;20022;-68
2022/11/24 12:59:44;;;;;;;2.22;2.03;;;14.00;58.40;;;;;;5013359;28;20022;-64
2022/11/24 13:02:26;;;;;;;2.65;2.40;;;14.00;58.00;;;;;;5013338;28;20025;-64
2022/11/24 13:05:13;;;;;;;3.05;2.75;;;13.90;58.90;;;;;;5013353;28;20026;-63
2022/11/24 13:07:45;;;;;;;4.82;3.08;;;13.70;58.00;;;;;;5013592;28;20361;-64
2022/11/24 13:10:25;;;;;;;2.85;2.20;;;13.90;58.90;;;;;;5013042;28;20026;-63
2022/11/24 13:13:01;;;;;;;1.80;1.40;;;13.70;57.90;;;;;;5012885;28;20026;-66
2022/11/24 13:15:28;;;;;;;2.15;1.75;;;13.70;57.90;;;;;;5013261;28;20053;-67
2022/11/24 13:17:54;;;;;;;5.00;3.00;;;13.50;58.90;;;;;;5013602;28;20022;-65
2022/11/24 13:20:20;;;;;;;2.30;1.98;;;13.50;59.30;;;;;;5012434;28;20096;-67
2022/11/24 13:22:54;;;;;;;2.10;1.90;;;13.40;59.40;;;;;;5011548;28;20022;-68
2022/11/24 13:25:27;;;;;;;2.67;1.60;;;13.40;59.70;;;;;;5011777;28;20029;-70
2022/11/24 13:27:56;;;;;;;1.70;1.60;;;13.30;59.10;;;;;;5012708;28;20132;-66
2022/11/24 13:30:34;;;;;;;3.13;2.50;;;13.30;59.80;;;;;;5012425;28;20079;-69
2022/11/24 13:33:01;;;;;;;2.90;2.58;;;13.20;60.00;;;;;;5012101;28;20072;-65
2022/11/24 13:35:28;;;;;;;2.17;1.98;;;13.20;59.90;;;;;;5010885;28;20445;-65
2022/11/24 13:37:53;;;;;;;2.60;2.05;;;13.30;59.50;;;;;;5013396;28;20053;-70
2022/11/24 13:40:21;;;;;;;2.67;2.20;;;13.40;59.30;;;;;;5013535;28;20038;-66
2022/11/24 13:43:01;;;;;;;3.30;2.08;;;13.40;60.20;;;;;;5013138;28;20026;-65
2022/11/24 13:45:39;;;;;;;1.90;1.70;;;13.50;61.90;;;;;;5012878;28;20101;-69
2022/11/24 13:48:20;;;;;;;1.60;1.50;;;13.60;59.90;;;;;;5012000;28;20022;-68
2022/11/24 13:50:49;;;;;;;1.85;1.20;;;13.60;61.20;;;;;;5011464;28;20427;-67
2022/11/24 13:53:35;;;;;;;1.90;1.70;;;13.60;61.40;;;;;;5012437;28;20018;-66
2022/11/24 13:56:12;;;;;;;1.23;1.13;;;13.50;60.30;;;;;;5012666;28;20033;-63
2022/11/24 13:58:39;;;;;;;2.25;2.05;;;13.40;61.40;;;;;;5012446;28;20120;-68
2022/11/24 14:01:07;;;;;;;2.38;1.92;;;13.30;61.60;;;;;;5012521;28;20097;-66
2022/11/24 14:03:50;;;;;;;2.30;2.10;;;13.30;61.30;;;;;;5011780;28;20484;-65
2022/11/24 14:06:33;;;;;;;2.22;1.88;;;13.20;61.20;;;;;;5011575;28;20033;-69
2022/11/24 14:09:02;;;;;;;2.75;2.30;;;13.30;62.70;;;;;;5014951;28;20045;-69
2022/11/24 14:11:28;;;;;;;2.50;2.30;;;13.30;61.70;;;;;;5016021;28;20029;-70
2022/11/24 14:13:54;;;;;;;2.58;2.20;;;13.40;62.70;;;;;;5016182;28;20030;-65
2022/11/24 14:16:23;;;;;;;1.83;1.65;;;13.40;62.70;;;;;;5016327;28;20488;-66
2022/11/24 14:18:50;;;;;;;3.88;2.83;;;13.40;61.90;;;;;;5016536;28;20030;-70
2022/11/24 14:21:19;;;;;;;2.42;2.13;;;13.50;62.60;;;;;;5016260;28;20123;-68
2022/11/24 14:23:49;;;;;;;2.60;2.40;;;13.40;63.50;;;;;;5016695;28;20028;-66
2022/11/24 14:26:33;;;;;;;2.08;1.95;;;13.40;63.60;;;;;;5016740;28;20084;-70
2022/11/24 14:29:27;;;;;;;2.55;2.35;;;13.40;64.00;;;;;;5015303;28;20431;-69
2022/11/24 14:31:56;;;;;;;4.53;2.38;;;13.40;62.30;;;;;;5016182;28;20045;-64
2022/11/24 14:34:25;;;;;;;3.25;2.25;;;13.30;63.50;;;;;;5016483;28;20544;-65
2022/11/24 14:36:53;;;;;;;4.75;4.32;;;13.20;63.30;;;;;;5016135;28;20022;-70
2022/11/24 14:39:24;;;;;;;4.32;3.25;;;13.20;64.00;;;;;;5016594;28;20021;-67
2022/11/24 14:42:06;;;;;;;2.88;2.60;;;13.20;63.70;;;;;;5016246;28;20535;-65
2022/11/24 14:44:47;;;;;;;4.53;3.55;;;13.10;64.40;;;;;;5016490;28;20026;-65
2022/11/24 14:47:30;;;;;;;2.90;2.60;;;13.10;65.30;;;;;;5016154;28;20108;-67
2022/11/24 14:50:04;;;;;;;3.45;3.15;;;13.10;64.50;;;;;;5015951;28;20482;-70
2022/11/24 14:52:30;;;;;;;3.80;3.50;;;13.20;63.50;;;;;;5016017;28;20026;-71
2022/11/24 14:54:57;;;;;;;5.72;4.70;;;13.20;63.30;;;;;;5016000;28;20385;-66
2022/11/24 14:57:35;;;;;;;3.90;3.50;;;13.20;63.60;;;;;;5016286;28;20076;-64
2022/11/24 15:00:27;;;;;;;3.70;3.35;;;13.10;64.70;;;;;;5014558;28;20418;-67
2022/11/24 15:03:16;;;;;;;4.63;4.22;;;13.10;64.40;;;;;;5015863;28;20017;-63
2022/11/24 15:05:55;;;;;;;8.13;6.20;;;13.10;63.90;;;;;;5015150;28;20160;-63
2022/11/24 15:08:23;;;;;;;50.58;31.48;;;13.10;64.40;;;;;;5015691;28;20029;-71
2022/11/24 15:10:56;;;;;;;56.58;38.15;;;13.00;68.00;;;;;;5015746;28;20072;-68
2022/11/24 15:13:23;;;;;;;56.17;38.00;;;12.70;70.80;;;;;;5015805;28;20468;-66
2022/11/24 15:15:58;;;;;;;94.13;72.30;;;12.50;73.30;;;;;;5015527;28;20029;-65
2022/11/24 15:18:41;;;;;;;113.05;85.72;;;12.30;77.90;;;;;;5015520;28;20033;-72
2022/11/24 15:21:08;;;;;;;104.28;79.28;;;12.10;87.40;;;;;;5015087;28;20053;-63
2022/11/24 15:23:35;;;;;;;110.20;85.88;;;12.00;94.50;;;;;;5015474;28;20595;-65
2022/11/24 15:26:00;;;;;;;101.18;83.43;;;11.90;93.50;;;;;;5015661;28;20025;-69
2022/11/24 15:28:27;;;;;;;118.90;97.70;;;11.80;94.60;;;;;;5015275;28;20464;-71
2022/11/24 15:30:55;;;;;;;156.52;115.85;;;11.70;99.90;;;;;;5015608;28;20030;-65
2022/11/24 15:33:22;;;;;;;151.70;102.05;;;11.40;99.90;;;;;;5015247;28;20022;-69
2022/11/24 15:35:48;;;;;;;140.85;93.93;;;11.20;99.90;;;;;;5015153;28;20018;-63
2022/11/24 15:38:14;;;;;;;90.57;62.95;;;11.00;99.90;;;;;;5015498;28;20506;-65
2022/11/24 15:40:43;;;;;;;83.72;56.47;;;10.90;99.90;;;;;;5015336;28;20034;-67
2022/11/24 15:43:24;;;;;;;121.45;73.78;;;10.80;99.90;;;;;;5015085;28;20030;-65
2022/11/24 15:45:49;;;;;;;153.82;95.40;;;10.70;99.90;;;;;;5015071;28;20049;-70
2022/11/24 15:48:15;;;;;;;169.02;98.80;;;10.60;99.90;;;;;;5014905;28;20018;-70
2022/11/24 15:50:41;;;;;;;124.18;77.75;;;10.40;99.90;;;;;;5014880;28;20091;-63
2022/11/24 15:53:15;;;;;;;117.47;77.18;;;10.20;99.90;;;;;;5015166;28;20022;-65
2022/11/24 15:55:41;;;;;;;123.30;79.38;;;10.30;99.90;;;;;;5014819;28;20124;-70
2022/11/24 15:58:11;;;;;;;96.05;63.08;;;10.40;99.90;;;;;;5014957;28;20488;-67
2022/11/24 16:00:37;;;;;;;112.25;73.13;;;10.40;99.90;;;;;;5014938;28;20365;-65
2022/11/24 16:03:03;;;;;;;149.93;92.85;;;10.30;99.90;;;;;;5014516;28;20033;-71
2022/11/24 16:05:30;;;;;;;158.60;98.10;;;10.30;99.90;;;;;;5014830;28;20427;-70
2022/11/24 16:07:56;;;;;;;130.05;83.13;;;10.30;99.90;;;;;;5014734;28;20482;-68
2022/11/24 16:10:28;;;;;;;103.82;73.20;;;10.40;99.90;;;;;;5014567;28;20078;-68
2022/11/24 16:12:54;;;;;;;79.55;56.47;;;10.40;99.90;;;;;;5013383;28;20479;-68
2022/11/24 16:15:20;;;;;;;97.25;67.55;;;10.30;99.90;;;;;;5014616;28;20026;-68
2022/11/24 16:17:45;;;;;;;98.40;69.25;;;10.30;99.90;;;;;;5014125;28;20026;-65
2022/11/24 16:20:11;;;;;;;138.88;90.32;;;10.20;99.90;;;;;;5014065;28;20060;-65
2022/11/24 16:22:37;;;;;;;144.55;97.05;;;10.10;99.90;;;;;;5014539;28;20097;-69
2022/11/24 16:25:03;;;;;;;102.28;72.50;;;9.80;99.90;;;;;;5014311;28;20106;-66
2022/11/24 16:27:30;;;;;;;83.43;57.17;;;9.60;99.90;;;;;;5014327;28;20033;-72
2022/11/24 16:29:55;;;;;;;106.07;74.68;;;9.30;99.90;;;;;;5013711;28;20053;-68
2022/11/24 16:32:21;;;;;;;79.97;58.20;;;9.10;99.90;;;;;;5013999;28;20054;-66
2022/11/24 16:34:47;;;;;;;87.38;59.55;;;8.90;99.90;;;;;;5014129;28;20495;-68
2022/11/24 16:37:12;;;;;;;96.85;67.82;;;8.80;99.90;;;;;;5014294;28;20500;-67
2022/11/24 16:39:38;;;;;;;102.55;72.93;;;8.70;99.90;;;;;;5014060;28;20096;-69
2022/11/24 16:42:04;;;;;;;84.15;65.35;;;8.80;99.90;;;;;;5013970;28;20542;-70
2022/11/24 16:44:29;;;;;;;82.78;60.88;;;8.90;99.90;;;;;;5014143;28;20033;-65
2022/11/24 16:46:55;;;;;;;105.28;76.55;;;9.10;99.90;;;;;;5013845;28;20060;-66
2022/11/24 16:49:21;;;;;;;131.35;94.78;;;9.20;99.90;;;;;;5029165;28;20057;-65
2022/11/24 16:51:47;;;;;;;145.45;106.35;;;9.10;99.90;;;;;;5013853;28;20472;-71
2022/11/24 16:54:13;;;;;;;126.22;92.80;;;9.10;99.90;;;;;;5013802;28;20024;-65
2022/11/24 16:56:38;;;;;;;133.18;94.63;;;9.00;99.90;;;;;;5013806;28;20057;-72
2022/11/24 16:59:04;;;;;;;180.07;122.97;;;8.90;99.90;;;;;;5013755;28;20022;-65
2022/11/24 17:01:31;;;;;;;177.88;128.25;;;8.70;99.90;;;;;;5013401;28;20030;-65
2022/11/24 17:03:57;;;;;;;201.20;143.98;;;8.80;99.90;;;;;;5013781;28;20034;-68
2022/11/24 17:06:23;;;;;;;176.77;125.72;;;8.90;99.90;;;;;;5013699;28;20075;-67
2022/11/24 17:08:49;;;;;;;177.52;128.02;;;9.10;99.90;;;;;;5013801;28;20014;-69
2022/11/24 17:11:17;;;;;;;193.10;138.70;;;9.20;99.90;;;;;;5013723;28;20026;-69
2022/11/24 17:13:48;;;;;;;181.00;130.13;;;9.20;99.90;;;;;;5013799;28;20026;-67
2022/11/24 17:16:16;;;;;;;147.15;105.32;;;9.10;99.90;;;;;;5013603;28;20025;-70
2022/11/24 17:18:42;;;;;;;154.55;107.88;;;9.10;99.90;;;;;;5013635;28;20379;-67
2022/11/24 17:21:26;;;;;;;146.77;102.00;;;9.10;99.90;;;;;;5013220;28;20054;-68
2022/11/24 17:23:57;;;;;;;137.75;96.88;;;9.00;99.90;;;;;;5013540;28;20115;-67
2022/11/24 17:26:23;;;;;;;161.80;110.43;;;9.00;99.90;;;;;;5013737;28;20030;-69
2022/11/24 17:28:49;;;;;;;121.70;87.70;;;8.90;99.90;;;;;;5013591;28;20464;-62
2022/11/24 17:31:27;;;;;;;177.50;121.95;;;8.90;99.90;;;;;;5013385;28;20109;-68
2022/11/24 17:33:55;;;;;;;181.90;110.80;;;8.90;99.90;;;;;;5013493;28;20018;-73
2022/11/24 17:36:21;;;;;;;157.65;94.50;;;8.90;99.90;;;;;;5013477;28;20018;-65
2022/11/24 17:38:48;;;;;;;144.55;86.65;;;8.90;99.90;;;;;;5013363;28;20053;-67
2022/11/24 17:41:14;;;;;;;141.82;81.60;;;9.00;99.90;;;;;;5013680;28;20117;-70
2022/11/24 17:43:40;;;;;;;138.38;82.50;;;9.00;99.90;;;;;;5017374;28;20022;-65
2022/11/24 17:46:07;;;;;;;139.50;82.90;;;9.00;99.90;;;;;;5017032;28;20033;-67
2022/11/24 17:48:34;;;;;;;148.10;89.80;;;9.00;99.90;;;;;;5017299;28;20018;-66
2022/11/24 17:51:02;;;;;;;213.88;127.03;;;9.00;99.90;;;;;;5017446;28;20427;-68
2022/11/24 17:53:29;;;;;;;186.10;118.43;;;9.00;99.90;;;;;;5017433;28;20026;-66
2022/11/24 17:55:58;;;;;;;209.25;132.57;;;9.00;99.90;;;;;;5017369;28;20415;-66
2022/11/24 17:58:29;;;;;;;168.32;111.55;;;9.10;99.90;;;;;;5017143;28;20058;-68
2022/11/24 18:00:55;;;;;;;161.18;106.68;;;9.20;99.90;;;;;;5016828;28;20030;-69
2022/11/24 18:03:21;;;;;;;275.90;166.52;;;9.30;99.90;;;;;;5017005;28;20022;-64
2022/11/24 18:05:48;;;;;;;264.55;170.07;;;9.30;99.90;;;;;;5017010;28;20365;-67
2022/11/24 18:08:13;;;;;;;267.05;167.80;;;9.20;99.90;;;;;;5016840;28;20042;-69
2022/11/24 18:10:39;;;;;;;271.25;173.23;;;9.10;99.90;;;;;;5017076;28;20064;-67
2022/11/24 18:13:05;;;;;;;248.30;159.32;;;9.10;99.90;;;;;;5016729;28;20022;-65
2022/11/24 18:15:34;;;;;;;245.23;158.75;;;9.10;99.90;;;;;;5016997;28;20094;-65
2022/11/24 18:18:01;;;;;;;212.68;136.57;;;9.20;99.90;;;;;;5016744;28;20109;-66
2022/11/24 18:20:27;;;;;;;208.35;136.38;;;9.20;99.90;;;;;;5016420;28;20515;-65
2022/11/24 18:22:54;;;;;;;196.23;130.52;;;9.30;99.90;;;;;;5016618;28;20041;-68
2022/11/24 18:25:20;;;;;;;173.25;115.30;;;9.40;99.90;;;;;;5016464;28;20018;-70
2022/11/24 18:27:46;;;;;;;140.57;94.00;;;9.40;99.90;;;;;;5016522;28;20025;-63
2022/11/24 18:30:12;;;;;;;134.23;87.00;;;9.40;99.90;;;;;;5016499;28;20119;-64
2022/11/24 18:32:38;;;;;;;153.45;102.22;;;9.40;99.90;;;;;;5015912;28;20069;-70
2022/11/24 18:35:04;;;;;;;139.95;97.55;;;9.30;99.90;;;;;;5016499;28;20037;-68
2022/11/24 18:37:32;;;;;;;139.18;92.38;;;9.30;99.90;;;;;;5015410;28;20028;-68
2022/11/24 18:40:00;;;;;;;134.07;91.10;;;9.30;99.90;;;;;;5016103;28;20103;-63
2022/11/24 18:42:28;;;;;;;99.55;71.88;;;9.30;99.90;;;;;;5015270;28;20032;-65
2022/11/24 18:44:55;;;;;;;98.03;67.40;;;9.30;99.90;;;;;;5015743;28;20371;-68
2022/11/24 18:47:21;;;;;;;84.60;58.30;;;9.40;99.90;;;;;;5016077;28;20057;-70
2022/11/24 18:49:46;;;;;;;80.88;56.78;;;9.50;99.90;;;;;;5014421;28;20053;-71
2022/11/24 18:52:12;;;;;;;96.78;63.42;;;9.60;99.90;;;;;;5013978;28;20044;-66
2022/11/24 18:54:37;;;;;;;86.85;62.65;;;9.60;99.90;;;;;;5014673;28;20076;-73
2022/11/24 18:57:03;;;;;;;79.80;58.60;;;9.60;99.90;;;;;;5014973;28;20069;-70
2022/11/24 18:59:29;;;;;;;67.13;49.72;;;9.60;99.90;;;;;;5015162;28;20050;-68
2022/11/24 19:01:56;;;;;;;60.63;47.15;;;9.60;99.90;;;;;;5015604;28;20430;-67
2022/11/24 19:04:22;;;;;;;62.65;46.17;;;9.60;99.90;;;;;;5015808;28;20547;-69
2022/11/24 19:06:48;;;;;;;58.40;45.13;;;9.70;99.90;;;;;;5015961;28;20076;-69
2022/11/24 19:09:17;;;;;;;53.25;41.20;;;9.70;99.90;;;;;;5015903;28;20025;-70
2022/11/24 19:11:45;;;;;;;74.38;51.63;;;9.70;99.90;;;;;;5015856;28;20033;-70
2022/11/24 19:14:13;;;;;;;100.50;62.45;;;9.70;99.90;;;;;;5015648;28;20101;-68
2022/11/24 19:16:39;;;;;;;97.68;60.58;;;9.70;99.90;;;;;;5015985;28;20026;-66
2022/11/24 19:19:06;;;;;;;83.85;57.80;;;9.70;99.90;;;;;;5015893;28;20022;-70
2022/11/24 19:21:34;;;;;;;109.35;72.20;;;9.70;99.90;;;;;;5015735;28;20029;-64
2022/11/24 19:24:00;;;;;;;83.35;58.15;;;9.70;99.90;;;;;;5015581;28;20100;-65
2022/11/24 19:26:25;;;;;;;116.85;72.93;;;9.70;99.90;;;;;;5015482;28;20022;-66
2022/11/24 19:28:51;;;;;;;103.13;67.10;;;9.70;99.90;;;;;;5015328;28;20022;-68
2022/11/24 19:31:19;;;;;;;83.00;57.33;;;9.70;99.90;;;;;;5015604;28;20030;-69
2022/11/24 19:33:45;;;;;;;119.07;78.97;;;9.70;99.90;;;;;;5015293;28;20022;-70
2022/11/24 19:36:22;;;;;;;109.97;73.30;;;9.60;99.90;;;;;;5015478;28;20357;-67
2022/11/24 19:38:50;;;;;;;110.03;72.20;;;9.60;99.90;;;;;;5015135;28;20037;-66
2022/11/24 19:41:18;;;;;;;101.63;69.22;;;9.50;99.90;;;;;;5015265;28;20389;-63
2022/11/24 19:43:45;;;;;;;101.97;69.78;;;9.50;99.90;;;;;;5014993;28;20547;-66
2022/11/24 19:46:12;;;;;;;86.30;59.50;;;9.40;99.90;;;;;;5014588;28;20476;-66
2022/11/24 19:48:43;;;;;;;79.53;55.13;;;9.40;99.90;;;;;;5015113;28;20018;-66
2022/11/24 19:51:14;;;;;;;115.47;76.38;;;9.50;99.90;;;;;;5014889;28;20151;-70
2022/11/24 19:53:39;;;;;;;85.43;58.58;;;9.40;99.90;;;;;;5014826;28;20026;-65
2022/11/24 19:56:07;;;;;;;83.72;56.28;;;9.40;99.90;;;;;;5013841;28;20368;-65
2022/11/24 19:58:33;;;;;;;75.13;53.25;;;9.40;99.90;;;;;;5014927;28;20112;-68
2022/11/24 20:01:10;;;;;;;68.72;47.33;;;9.40;99.90;;;;;;5014714;28;20030;-71
2022/11/24 20:03:37;;;;;;;62.55;45.40;;;9.40;99.90;;;;;;5014364;28;20426;-66
2022/11/24 20:06:04;;;;;;;73.13;49.70;;;9.40;99.90;;;;;;5014254;28;20037;-70
2022/11/24 20:08:30;;;;;;;59.03;41.60;;;9.40;99.90;;;;;;5013981;28;20024;-70
2022/11/24 20:11:08;;;;;;;51.53;38.80;;;9.40;99.90;;;;;;5012701;28;20030;-70
2022/11/24 20:13:35;;;;;;;78.88;54.55;;;9.40;99.90;;;;;;5012566;28;20018;-68
2022/11/24 20:16:09;;;;;;;99.65;65.47;;;9.30;99.90;;;;;;5012644;28;20464;-68
2022/11/24 20:18:36;;;;;;;78.38;52.90;;;9.20;99.90;;;;;;5012584;28;20472;-63
2022/11/24 20:21:07;;;;;;;60.60;44.55;;;9.10;99.90;;;;;;5012897;28;20052;-63
2022/11/24 20:23:34;;;;;;;61.85;44.40;;;9.10;99.90;;;;;;5013682;28;20498;-70
2022/11/24 20:26:12;;;;;;;97.07;65.30;;;9.10;99.90;;;;;;5014549;28;20022;-68
2022/11/24 20:28:38;;;;;;;105.07;73.03;;;9.10;99.90;;;;;;5014395;28;20022;-69
2022/11/24 20:31:13;;;;;;;82.18;57.08;;;8.90;99.90;;;;;;5014251;28;20380;-71
2022/11/24 20:33:39;;;;;;;98.72;70.70;;;8.90;99.90;;;;;;5014281;28;20076;-67
2022/11/24 20:36:10;;;;;;;105.10;72.63;;;8.90;99.90;;;;;;5014210;28;20424;-66
2022/11/24 20:38:37;;;;;;;75.70;54.30;;;8.90;99.90;;;;;;5014120;28;20079;-68
2022/11/24 20:41:10;;;;;;;73.63;54.38;;;8.90;99.90;;;;;;5013974;28;20128;-65
2022/11/24 20:43:37;;;;;;;74.95;56.10;;;8.90;99.90;;;;;;5014401;28;20084;-67
2022/11/24 20:46:08;;;;;;;67.60;51.30;;;8.80;99.90;;;;;;5014255;28;20067;-66
2022/11/24 20:48:34;;;;;;;91.00;65.13;;;8.70;99.90;;;;;;5014287;28;20026;-73
2022/11/24 20:51:09;;;;;;;126.10;84.22;;;8.70;99.90;;;;;;5014313;28;20430;-67
2022/11/24 20:53:35;;;;;;;149.68;101.05;;;8.60;99.90;;;;;;5014021;28;20101;-65
2022/11/24 20:56:07;;;;;;;128.13;91.05;;;8.60;99.90;;;;;;5013961;28;20052;-67
2022/11/24 20:58:35;;;;;;;107.55;71.85;;;8.60;99.90;;;;;;5013901;28;20079;-65
2022/11/24 21:01:15;;;;;;;87.60;60.88;;;8.60;99.90;;;;;;5013709;28;20498;-71
2022/11/24 21:03:41;;;;;;;80.55;55.85;;;8.80;99.90;;;;;;5013733;28;20480;-67
2022/11/24 21:06:08;;;;;;;71.07;49.72;;;8.80;99.90;;;;;;5013795;28;20053;-67
2022/11/24 21:08:35;;;;;;;67.10;47.70;;;8.90;99.90;;;;;;5013517;28;20048;-68
2022/11/24 21:11:02;;;;;;;67.20;49.10;;;8.90;99.90;;;;;;5013686;28;20511;-68
2022/11/24 21:13:30;;;;;;;86.25;59.35;;;8.90;99.90;;;;;;5013677;28;20022;-70
2022/11/24 21:15:56;;;;;;;83.25;58.38;;;8.80;99.90;;;;;;5013463;28;20030;-72
2022/11/24 21:18:21;;;;;;;81.95;56.88;;;8.70;99.90;;;;;;5013734;28;20029;-72
2022/11/24 21:20:47;;;;;;;65.22;46.15;;;8.70;99.90;;;;;;5013269;28;20085;-67
2022/11/24 21:23:14;;;;;;;59.60;42.72;;;8.70;99.90;;;;;;5012972;28;20376;-68
2022/11/24 21:25:40;;;;;;;55.40;41.10;;;8.80;99.90;;;;;;5013625;28;20050;-69
2022/11/24 21:28:07;;;;;;;61.05;43.35;;;8.90;99.90;;;;;;5013430;28;20519;-67
2022/11/24 21:30:34;;;;;;;53.40;37.92;;;9.00;99.90;;;;;;5013364;28;20518;-66
2022/11/24 21:33:03;;;;;;;107.05;71.60;;;9.00;99.90;;;;;;5013796;28;20227;-67
2022/11/24 21:35:32;;;;;;;72.53;52.65;;;9.00;99.90;;;;;;5013530;28;20103;-68
2022/11/24 21:37:58;;;;;;;70.78;50.63;;;8.90;99.90;;;;;;5013494;28;20169;-67
2022/11/24 21:40:23;;;;;;;79.35;53.15;;;8.90;99.90;;;;;;5013350;28;20104;-64
2022/11/24 21:42:49;;;;;;;63.40;45.58;;;8.90;99.90;;;;;;5013547;28;20104;-67
2022/11/24 21:45:15;;;;;;;74.15;48.97;;;8.90;99.90;;;;;;5013284;28;20018;-70
2022/11/24 21:47:41;;;;;;;61.33;43.58;;;8.90;99.90;;;;;;5013517;28;20022;-65
2022/11/24 21:50:10;;;;;;;72.68;48.90;;;8.90;99.90;;;;;;5013381;28;20448;-65
2022/11/24 21:52:35;;;;;;;59.08;41.17;;;8.90;99.90;;;;;;5013016;28;20037;-65
2022/11/24 21:55:01;;;;;;;77.88;52.83;;;8.80;99.90;;;;;;5013252;28;20022;-65
2022/11/24 21:57:27;;;;;;;93.90;65.00;;;8.70;99.90;;;;;;5013360;28;20100;-68
2022/11/24 21:59:53;;;;;;;88.22;61.67;;;8.60;99.90;;;;;;5013126;28;20369;-64
2022/11/24 22:02:18;;;;;;;81.05;55.55;;;8.40;99.90;;;;;;5013114;28;20037;-63
2022/11/24 22:04:44;;;;;;;80.15;56.20;;;8.30;99.90;;;;;;5013238;28;20026;-69
2022/11/24 22:07:10;;;;;;;81.05;57.13;;;8.30;99.90;;;;;;5013147;28;20096;-68
2022/11/24 22:09:35;;;;;;;122.53;78.78;;;8.20;99.90;;;;;;5012955;28;20025;-68
2022/11/24 22:12:01;;;;;;;159.60;97.15;;;8.20;99.90;;;;;;5013420;28;20357;-68
2022/11/24 22:14:26;;;;;;;132.40;83.78;;;8.10;99.90;;;;;;5013281;28;20025;-68
2022/11/24 22:16:52;;;;;;;158.95;91.18;;;7.90;99.90;;;;;;5013241;28;20033;-66